sensor_id;sensor_type;location;lat;lon;timestamp;P1;durP1;ratioP1;P2;durP2;ratioP2
30408;SDS011;17207;52.960;5.916;2024-03-29T00:01:32;0.20;;;0.20;;
30408;SDS011;17207;52.960;5.916;2024-03-29T00:03:58;0.38;;;0.30;;
30408;SDS011;17207;52.960;5.916;2024-03-29T00:06:24;0.40;;;0.40;;
30408;SDS011;17207;52.960;5.916;2024-03-29T00:08:50;0.85;;;0.40;;
30408;SDS011;17207;52.960;5.916;2024-03-29T00:11:16;0.93;;;0.35;;
30408;SDS011;17207;52.960;5.916;2024-03-29T00:13:42;0.40;;;0.40;;
30408;SDS011;17207;52.960;5.916;2024-03-29T00:16:08;1.00;;;0.40;;
30408;SDS011;17207;52.960;5.916;2024-03-29T00:18:34;0.30;;;0.30;;
30408;SDS011;17207;52.960;5.916;2024-03-29T00:21:00;0.30;;;0.30;;
30408;SDS011;17207;52.960;5.916;2024-03-29T00:23:26;0.85;;;0.40;;
30408;SDS011;17207;52.960;5.916;2024-03-29T00:25:53;0.47;;;0.40;;
30408;SDS011;17207;52.960;5.916;2024-03-29T00:28:23;0.25;;;0.25;;
30408;SDS011;17207;52.960;5.916;2024-03-29T00:30:49;2.92;;;0.43;;
30408;SDS011;17207;52.960;5.916;2024-03-29T00:33:14;0.30;;;0.30;;
30408;SDS011;17207;52.960;5.916;2024-03-29T00:35:40;0.40;;;0.40;;
30408;SDS011;17207;52.960;5.916;2024-03-29T00:38:06;0.32;;;0.30;;
30408;SDS011;17207;52.960;5.916;2024-03-29T00:40:32;0.60;;;0.40;;
30408;SDS011;17207;52.960;5.916;2024-03-29T00:42:58;0.30;;;0.30;;
30408;SDS011;17207;52.960;5.916;2024-03-29T00:45:24;1.02;;;0.47;;
30408;SDS011;17207;52.960;5.916;2024-03-29T00:47:50;0.38;;;0.38;;
30408;SDS011;17207;52.960;5.916;2024-03-29T00:50:16;0.55;;;0.40;;
30408;SDS011;17207;52.960;5.916;2024-03-29T00:52:42;0.38;;;0.35;;
30408;SDS011;17207;52.960;5.916;2024-03-29T00:55:08;0.35;;;0.30;;
30408;SDS011;17207;52.960;5.916;2024-03-29T00:57:34;0.90;;;0.40;;
30408;SDS011;17207;52.960;5.916;2024-03-29T01:00:00;0.40;;;0.30;;
30408;SDS011;17207;52.960;5.916;2024-03-29T01:02:26;0.40;;;0.40;;
30408;SDS011;17207;52.960;5.916;2024-03-29T01:04:52;0.50;;;0.30;;
30408;SDS011;17207;52.960;5.916;2024-03-29T01:07:18;1.20;;;0.35;;
30408;SDS011;17207;52.960;5.916;2024-03-29T01:09:44;0.80;;;0.43;;
30408;SDS011;17207;52.960;5.916;2024-03-29T01:12:10;0.32;;;0.32;;
30408;SDS011;17207;52.960;5.916;2024-03-29T01:14:36;0.50;;;0.30;;
30408;SDS011;17207;52.960;5.916;2024-03-29T01:17:03;0.60;;;0.60;;
30408;SDS011;17207;52.960;5.916;2024-03-29T01:19:29;0.20;;;0.20;;
30408;SDS011;17207;52.960;5.916;2024-03-29T01:21:55;1.10;;;0.30;;
30408;SDS011;17207;52.960;5.916;2024-03-29T01:24:21;0.70;;;0.30;;
30408;SDS011;17207;52.960;5.916;2024-03-29T01:26:47;0.30;;;0.30;;
30408;SDS011;17207;52.960;5.916;2024-03-29T01:29:13;0.40;;;0.40;;
30408;SDS011;17207;52.960;5.916;2024-03-29T01:31:39;0.30;;;0.30;;
30408;SDS011;17207;52.960;5.916;2024-03-29T01:34:05;0.30;;;0.30;;
30408;SDS011;17207;52.960;5.916;2024-03-29T01:36:31;0.30;;;0.30;;
30408;SDS011;17207;52.960;5.916;2024-03-29T01:38:57;0.30;;;0.30;;
30408;SDS011;17207;52.960;5.916;2024-03-29T01:41:26;0.20;;;0.20;;
30408;SDS011;17207;52.960;5.916;2024-03-29T01:43:52;0.30;;;0.30;;
30408;SDS011;17207;52.960;5.916;2024-03-29T01:46:19;0.20;;;0.20;;
30408;SDS011;17207;52.960;5.916;2024-03-29T01:48:46;0.30;;;0.30;;
30408;SDS011;17207;52.960;5.916;2024-03-29T01:51:13;0.20;;;0.20;;
30408;SDS011;17207;52.960;5.916;2024-03-29T01:53:39;0.32;;;0.30;;
30408;SDS011;17207;52.960;5.916;2024-03-29T01:56:05;0.40;;;0.40;;
30408;SDS011;17207;52.960;5.916;2024-03-29T01:58:32;0.85;;;0.40;;
30408;SDS011;17207;52.960;5.916;2024-03-29T02:00:59;0.28;;;0.28;;
30408;SDS011;17207;52.960;5.916;2024-03-29T02:03:26;0.30;;;0.30;;
30408;SDS011;17207;52.960;5.916;2024-03-29T02:05:52;0.38;;;0.38;;
30408;SDS011;17207;52.960;5.916;2024-03-29T02:08:20;0.30;;;0.30;;
30408;SDS011;17207;52.960;5.916;2024-03-29T02:10:46;0.30;;;0.30;;
30408;SDS011;17207;52.960;5.916;2024-03-29T02:13:13;0.73;;;0.50;;
30408;SDS011;17207;52.960;5.916;2024-03-29T02:15:39;0.43;;;0.40;;
30408;SDS011;17207;52.960;5.916;2024-03-29T02:18:06;1.45;;;0.20;;
30408;SDS011;17207;52.960;5.916;2024-03-29T02:20:32;1.08;;;0.30;;
30408;SDS011;17207;52.960;5.916;2024-03-29T02:23:11;0.50;;;0.43;;
30408;SDS011;17207;52.960;5.916;2024-03-29T02:25:39;0.38;;;0.30;;
30408;SDS011;17207;52.960;5.916;2024-03-29T02:28:05;0.30;;;0.30;;
30408;SDS011;17207;52.960;5.916;2024-03-29T02:30:31;0.30;;;0.30;;
30408;SDS011;17207;52.960;5.916;2024-03-29T02:32:57;2.15;;;0.40;;
30408;SDS011;17207;52.960;5.916;2024-03-29T02:35:23;0.82;;;0.30;;
30408;SDS011;17207;52.960;5.916;2024-03-29T02:37:50;0.30;;;0.30;;
30408;SDS011;17207;52.960;5.916;2024-03-29T02:40:16;0.30;;;0.30;;
30408;SDS011;17207;52.960;5.916;2024-03-29T02:42:42;0.20;;;0.20;;
30408;SDS011;17207;52.960;5.916;2024-03-29T02:45:08;0.30;;;0.30;;
30408;SDS011;17207;52.960;5.916;2024-03-29T02:47:34;0.32;;;0.20;;
30408;SDS011;17207;52.960;5.916;2024-03-29T02:50:00;0.93;;;0.40;;
30408;SDS011;17207;52.960;5.916;2024-03-29T02:52:26;3.20;;;0.30;;
30408;SDS011;17207;52.960;5.916;2024-03-29T02:54:52;2.33;;;0.38;;
30408;SDS011;17207;52.960;5.916;2024-03-29T02:57:18;0.30;;;0.30;;
30408;SDS011;17207;52.960;5.916;2024-03-29T02:59:43;0.40;;;0.40;;
30408;SDS011;17207;52.960;5.916;2024-03-29T03:02:09;1.10;;;0.40;;
30408;SDS011;17207;52.960;5.916;2024-03-29T03:04:35;0.28;;;0.28;;
30408;SDS011;17207;52.960;5.916;2024-03-29T03:07:01;1.27;;;0.30;;
30408;SDS011;17207;52.960;5.916;2024-03-29T03:09:46;1.00;;;0.20;;
30408;SDS011;17207;52.960;5.916;2024-03-29T03:12:31;0.38;;;0.30;;
30408;SDS011;17207;52.960;5.916;2024-03-29T03:14:57;0.30;;;0.30;;
30408;SDS011;17207;52.960;5.916;2024-03-29T03:17:27;0.75;;;0.45;;
30408;SDS011;17207;52.960;5.916;2024-03-29T03:19:53;0.73;;;0.40;;
30408;SDS011;17207;52.960;5.916;2024-03-29T03:22:19;0.30;;;0.30;;
30408;SDS011;17207;52.960;5.916;2024-03-29T03:24:45;0.32;;;0.32;;
30408;SDS011;17207;52.960;5.916;2024-03-29T03:27:11;2.13;;;0.40;;
30408;SDS011;17207;52.960;5.916;2024-03-29T03:29:38;5.68;;;0.40;;
30408;SDS011;17207;52.960;5.916;2024-03-29T03:32:04;0.45;;;0.30;;
30408;SDS011;17207;52.960;5.916;2024-03-29T03:34:31;0.35;;;0.35;;
30408;SDS011;17207;52.960;5.916;2024-03-29T03:36:57;0.40;;;0.40;;
30408;SDS011;17207;52.960;5.916;2024-03-29T03:39:23;0.22;;;0.22;;
30408;SDS011;17207;52.960;5.916;2024-03-29T03:41:49;0.30;;;0.30;;
30408;SDS011;17207;52.960;5.916;2024-03-29T03:44:16;0.43;;;0.20;;
30408;SDS011;17207;52.960;5.916;2024-03-29T03:46:42;0.30;;;0.30;;
30408;SDS011;17207;52.960;5.916;2024-03-29T03:49:08;0.30;;;0.30;;
30408;SDS011;17207;52.960;5.916;2024-03-29T03:51:34;0.40;;;0.40;;
30408;SDS011;17207;52.960;5.916;2024-03-29T03:54:00;0.32;;;0.30;;
30408;SDS011;17207;52.960;5.916;2024-03-29T03:56:26;1.42;;;0.38;;
30408;SDS011;17207;52.960;5.916;2024-03-29T03:58:52;0.60;;;0.20;;
30408;SDS011;17207;52.960;5.916;2024-03-29T04:01:18;0.30;;;0.30;;
30408;SDS011;17207;52.960;5.916;2024-03-29T04:03:44;0.98;;;0.32;;
30408;SDS011;17207;52.960;5.916;2024-03-29T04:06:10;0.60;;;0.32;;
30408;SDS011;17207;52.960;5.916;2024-03-29T04:08:36;0.98;;;0.30;;
30408;SDS011;17207;52.960;5.916;2024-03-29T04:11:02;0.43;;;0.25;;
30408;SDS011;17207;52.960;5.916;2024-03-29T04:13:28;1.45;;;0.30;;
30408;SDS011;17207;52.960;5.916;2024-03-29T04:16:01;0.50;;;0.38;;
30408;SDS011;17207;52.960;5.916;2024-03-29T04:18:27;0.65;;;0.40;;
30408;SDS011;17207;52.960;5.916;2024-03-29T04:20:59;0.73;;;0.40;;
30408;SDS011;17207;52.960;5.916;2024-03-29T04:23:25;1.65;;;0.40;;
30408;SDS011;17207;52.960;5.916;2024-03-29T04:25:52;0.30;;;0.30;;
30408;SDS011;17207;52.960;5.916;2024-03-29T04:28:18;0.30;;;0.30;;
30408;SDS011;17207;52.960;5.916;2024-03-29T04:30:51;0.20;;;0.20;;
30408;SDS011;17207;52.960;5.916;2024-03-29T04:33:17;2.30;;;0.40;;
30408;SDS011;17207;52.960;5.916;2024-03-29T04:38:21;0.55;;;0.30;;
30408;SDS011;17207;52.960;5.916;2024-03-29T04:40:48;2.28;;;0.40;;
30408;SDS011;17207;52.960;5.916;2024-03-29T04:43:14;0.52;;;0.30;;
30408;SDS011;17207;52.960;5.916;2024-03-29T04:45:40;0.35;;;0.35;;
30408;SDS011;17207;52.960;5.916;2024-03-29T04:48:06;0.30;;;0.30;;
30408;SDS011;17207;52.960;5.916;2024-03-29T04:50:32;1.38;;;0.30;;
30408;SDS011;17207;52.960;5.916;2024-03-29T04:52:58;0.47;;;0.22;;
30408;SDS011;17207;52.960;5.916;2024-03-29T04:55:24;0.30;;;0.30;;
30408;SDS011;17207;52.960;5.916;2024-03-29T04:57:50;0.25;;;0.25;;
30408;SDS011;17207;52.960;5.916;2024-03-29T05:00:16;0.30;;;0.30;;
30408;SDS011;17207;52.960;5.916;2024-03-29T05:02:42;0.20;;;0.20;;
30408;SDS011;17207;52.960;5.916;2024-03-29T05:05:08;0.22;;;0.22;;
30408;SDS011;17207;52.960;5.916;2024-03-29T05:07:34;0.30;;;0.30;;
30408;SDS011;17207;52.960;5.916;2024-03-29T05:10:00;0.77;;;0.30;;
30408;SDS011;17207;52.960;5.916;2024-03-29T05:12:28;0.20;;;0.20;;
30408;SDS011;17207;52.960;5.916;2024-03-29T05:14:54;1.17;;;0.40;;
30408;SDS011;17207;52.960;5.916;2024-03-29T05:17:20;0.30;;;0.30;;
30408;SDS011;17207;52.960;5.916;2024-03-29T05:19:50;0.73;;;0.40;;
30408;SDS011;17207;52.960;5.916;2024-03-29T05:22:16;0.30;;;0.30;;
30408;SDS011;17207;52.960;5.916;2024-03-29T05:24:42;0.30;;;0.30;;
30408;SDS011;17207;52.960;5.916;2024-03-29T05:27:08;0.45;;;0.30;;
30408;SDS011;17207;52.960;5.916;2024-03-29T05:29:34;0.30;;;0.30;;
30408;SDS011;17207;52.960;5.916;2024-03-29T05:32:00;0.38;;;0.22;;
30408;SDS011;17207;52.960;5.916;2024-03-29T05:34:26;0.60;;;0.30;;
30408;SDS011;17207;52.960;5.916;2024-03-29T05:36:52;0.30;;;0.30;;
30408;SDS011;17207;52.960;5.916;2024-03-29T05:39:18;0.38;;;0.30;;
30408;SDS011;17207;52.960;5.916;2024-03-29T05:41:44;0.75;;;0.30;;
30408;SDS011;17207;52.960;5.916;2024-03-29T05:44:10;0.35;;;0.22;;
30408;SDS011;17207;52.960;5.916;2024-03-29T05:46:36;0.40;;;0.35;;
30408;SDS011;17207;52.960;5.916;2024-03-29T05:49:03;0.95;;;0.40;;
30408;SDS011;17207;52.960;5.916;2024-03-29T05:51:29;1.95;;;0.40;;
30408;SDS011;17207;52.960;5.916;2024-03-29T05:53:55;0.88;;;0.30;;
30408;SDS011;17207;52.960;5.916;2024-03-29T05:56:21;2.22;;;0.30;;
30408;SDS011;17207;52.960;5.916;2024-03-29T05:58:47;0.68;;;0.30;;
30408;SDS011;17207;52.960;5.916;2024-03-29T06:01:13;0.20;;;0.20;;
30408;SDS011;17207;52.960;5.916;2024-03-29T06:03:39;0.65;;;0.30;;
30408;SDS011;17207;52.960;5.916;2024-03-29T06:06:05;0.30;;;0.30;;
30408;SDS011;17207;52.960;5.916;2024-03-29T06:08:32;0.30;;;0.30;;
30408;SDS011;17207;52.960;5.916;2024-03-29T06:10:58;0.28;;;0.20;;
30408;SDS011;17207;52.960;5.916;2024-03-29T06:13:25;1.65;;;0.30;;
30408;SDS011;17207;52.960;5.916;2024-03-29T06:16:09;0.90;;;0.30;;
30408;SDS011;17207;52.960;5.916;2024-03-29T06:18:54;0.45;;;0.30;;
30408;SDS011;17207;52.960;5.916;2024-03-29T06:21:20;0.22;;;0.22;;
30408;SDS011;17207;52.960;5.916;2024-03-29T06:23:46;0.60;;;0.30;;
30408;SDS011;17207;52.960;5.916;2024-03-29T06:26:12;0.98;;;0.32;;
30408;SDS011;17207;52.960;5.916;2024-03-29T06:28:38;0.20;;;0.20;;
30408;SDS011;17207;52.960;5.916;2024-03-29T06:31:04;1.17;;;0.40;;
30408;SDS011;17207;52.960;5.916;2024-03-29T06:33:30;0.30;;;0.30;;
30408;SDS011;17207;52.960;5.916;2024-03-29T06:35:56;0.30;;;0.20;;
30408;SDS011;17207;52.960;5.916;2024-03-29T06:38:22;0.85;;;0.30;;
30408;SDS011;17207;52.960;5.916;2024-03-29T06:40:48;0.40;;;0.40;;
30408;SDS011;17207;52.960;5.916;2024-03-29T06:43:14;0.30;;;0.30;;
30408;SDS011;17207;52.960;5.916;2024-03-29T06:45:40;0.65;;;0.40;;
30408;SDS011;17207;52.960;5.916;2024-03-29T06:48:09;1.52;;;0.50;;
30408;SDS011;17207;52.960;5.916;2024-03-29T06:50:36;0.22;;;0.22;;
30408;SDS011;17207;52.960;5.916;2024-03-29T06:53:02;0.45;;;0.30;;
30408;SDS011;17207;52.960;5.916;2024-03-29T06:55:29;0.90;;;0.40;;
30408;SDS011;17207;52.960;5.916;2024-03-29T06:57:55;0.40;;;0.30;;
30408;SDS011;17207;52.960;5.916;2024-03-29T07:00:21;0.57;;;0.25;;
30408;SDS011;17207;52.960;5.916;2024-03-29T07:02:47;1.20;;;0.35;;
30408;SDS011;17207;52.960;5.916;2024-03-29T07:05:13;0.28;;;0.28;;
30408;SDS011;17207;52.960;5.916;2024-03-29T07:07:39;0.30;;;0.30;;
30408;SDS011;17207;52.960;5.916;2024-03-29T07:10:05;0.35;;;0.30;;
30408;SDS011;17207;52.960;5.916;2024-03-29T07:12:31;0.30;;;0.30;;
30408;SDS011;17207;52.960;5.916;2024-03-29T07:14:57;0.30;;;0.30;;
30408;SDS011;17207;52.960;5.916;2024-03-29T07:17:23;0.30;;;0.30;;
30408;SDS011;17207;52.960;5.916;2024-03-29T07:19:49;1.02;;;0.68;;
30408;SDS011;17207;52.960;5.916;2024-03-29T07:22:15;3.97;;;0.47;;
30408;SDS011;17207;52.960;5.916;2024-03-29T07:24:41;2.85;;;0.43;;
30408;SDS011;17207;52.960;5.916;2024-03-29T07:27:07;1.40;;;1.30;;
30408;SDS011;17207;52.960;5.916;2024-03-29T07:29:33;4.15;;;2.70;;
30408;SDS011;17207;52.960;5.916;2024-03-29T07:32:00;1.20;;;1.10;;
30408;SDS011;17207;52.960;5.916;2024-03-29T07:34:26;2.45;;;1.63;;
30408;SDS011;17207;52.960;5.916;2024-03-29T07:36:52;1.48;;;1.27;;
30408;SDS011;17207;52.960;5.916;2024-03-29T07:39:18;1.38;;;0.90;;
30408;SDS011;17207;52.960;5.916;2024-03-29T07:41:45;1.00;;;0.90;;
30408;SDS011;17207;52.960;5.916;2024-03-29T07:44:11;1.00;;;0.90;;
30408;SDS011;17207;52.960;5.916;2024-03-29T07:46:37;0.80;;;0.80;;
30408;SDS011;17207;52.960;5.916;2024-03-29T07:49:04;0.73;;;0.73;;
30408;SDS011;17207;52.960;5.916;2024-03-29T07:51:30;0.63;;;0.63;;
30408;SDS011;17207;52.960;5.916;2024-03-29T07:53:56;0.70;;;0.70;;
30408;SDS011;17207;52.960;5.916;2024-03-29T07:56:23;1.15;;;0.70;;
30408;SDS011;17207;52.960;5.916;2024-03-29T07:58:53;0.60;;;0.60;;
30408;SDS011;17207;52.960;5.916;2024-03-29T08:01:19;0.82;;;0.70;;
30408;SDS011;17207;52.960;5.916;2024-03-29T08:03:45;0.73;;;0.70;;
30408;SDS011;17207;52.960;5.916;2024-03-29T08:06:12;2.13;;;1.00;;
30408;SDS011;17207;52.960;5.916;2024-03-29T08:08:38;3.55;;;0.70;;
30408;SDS011;17207;52.960;5.916;2024-03-29T08:11:04;0.60;;;0.60;;
30408;SDS011;17207;52.960;5.916;2024-03-29T08:13:30;0.73;;;0.70;;
30408;SDS011;17207;52.960;5.916;2024-03-29T08:15:59;0.68;;;0.68;;
30408;SDS011;17207;52.960;5.916;2024-03-29T08:18:25;0.95;;;0.90;;
30408;SDS011;17207;52.960;5.916;2024-03-29T08:20:52;0.85;;;0.60;;
30408;SDS011;17207;52.960;5.916;2024-03-29T08:23:20;2.13;;;0.93;;
30408;SDS011;17207;52.960;5.916;2024-03-29T08:25:46;1.13;;;0.70;;
30408;SDS011;17207;52.960;5.916;2024-03-29T08:28:13;1.15;;;1.05;;
30408;SDS011;17207;52.960;5.916;2024-03-29T08:30:39;0.95;;;0.90;;
30408;SDS011;17207;52.960;5.916;2024-03-29T08:33:05;6.47;;;1.77;;
30408;SDS011;17207;52.960;5.916;2024-03-29T08:35:31;1.13;;;1.02;;
30408;SDS011;17207;52.960;5.916;2024-03-29T08:37:57;2.05;;;0.90;;
30408;SDS011;17207;52.960;5.916;2024-03-29T08:40:24;3.05;;;0.80;;
30408;SDS011;17207;52.960;5.916;2024-03-29T08:42:53;1.85;;;0.85;;
30408;SDS011;17207;52.960;5.916;2024-03-29T08:45:19;1.33;;;0.90;;
30408;SDS011;17207;52.960;5.916;2024-03-29T08:47:46;1.08;;;0.98;;
30408;SDS011;17207;52.960;5.916;2024-03-29T08:50:12;0.75;;;0.70;;
30408;SDS011;17207;52.960;5.916;2024-03-29T08:52:39;2.45;;;0.85;;
30408;SDS011;17207;52.960;5.916;2024-03-29T08:55:05;1.08;;;0.80;;
30408;SDS011;17207;52.960;5.916;2024-03-29T08:57:31;2.75;;;0.73;;
30408;SDS011;17207;52.960;5.916;2024-03-29T08:59:57;1.02;;;0.88;;
30408;SDS011;17207;52.960;5.916;2024-03-29T09:02:23;1.08;;;0.98;;
30408;SDS011;17207;52.960;5.916;2024-03-29T09:04:49;2.47;;;1.00;;
30408;SDS011;17207;52.960;5.916;2024-03-29T09:07:15;1.48;;;0.70;;
30408;SDS011;17207;52.960;5.916;2024-03-29T09:09:41;0.95;;;0.73;;
30408;SDS011;17207;52.960;5.916;2024-03-29T09:12:08;1.15;;;0.70;;
30408;SDS011;17207;52.960;5.916;2024-03-29T09:14:34;0.70;;;0.70;;
30408;SDS011;17207;52.960;5.916;2024-03-29T09:17:00;1.45;;;0.75;;
30408;SDS011;17207;52.960;5.916;2024-03-29T09:19:27;0.93;;;0.80;;
30408;SDS011;17207;52.960;5.916;2024-03-29T09:24:21;0.60;;;0.60;;
30408;SDS011;17207;52.960;5.916;2024-03-29T09:26:50;0.82;;;0.70;;
30408;SDS011;17207;52.960;5.916;2024-03-29T09:29:16;0.60;;;0.60;;
30408;SDS011;17207;52.960;5.916;2024-03-29T09:31:45;1.67;;;0.70;;
30408;SDS011;17207;52.960;5.916;2024-03-29T09:34:11;0.70;;;0.70;;
30408;SDS011;17207;52.960;5.916;2024-03-29T09:36:37;1.65;;;0.52;;
30408;SDS011;17207;52.960;5.916;2024-03-29T09:39:03;0.90;;;0.70;;
30408;SDS011;17207;52.960;5.916;2024-03-29T09:41:29;0.60;;;0.60;;
30408;SDS011;17207;52.960;5.916;2024-03-29T09:43:59;0.70;;;0.70;;
30408;SDS011;17207;52.960;5.916;2024-03-29T09:46:28;0.73;;;0.73;;
30408;SDS011;17207;52.960;5.916;2024-03-29T09:48:54;0.60;;;0.50;;
30408;SDS011;17207;52.960;5.916;2024-03-29T09:51:21;1.30;;;0.50;;
30408;SDS011;17207;52.960;5.916;2024-03-29T09:53:47;0.50;;;0.50;;
30408;SDS011;17207;52.960;5.916;2024-03-29T09:56:14;0.68;;;0.63;;
30408;SDS011;17207;52.960;5.916;2024-03-29T09:58:40;3.50;;;0.43;;
30408;SDS011;17207;52.960;5.916;2024-03-29T10:01:06;1.35;;;0.60;;
30408;SDS011;17207;52.960;5.916;2024-03-29T10:03:40;0.70;;;0.60;;
30408;SDS011;17207;52.960;5.916;2024-03-29T10:06:07;3.88;;;0.70;;
30408;SDS011;17207;52.960;5.916;2024-03-29T10:08:33;0.57;;;0.57;;
30408;SDS011;17207;52.960;5.916;2024-03-29T10:11:00;2.10;;;0.80;;
30408;SDS011;17207;52.960;5.916;2024-03-29T10:13:26;2.15;;;0.50;;
30408;SDS011;17207;52.960;5.916;2024-03-29T10:15:53;0.57;;;0.57;;
30408;SDS011;17207;52.960;5.916;2024-03-29T10:18:21;2.78;;;0.75;;
30408;SDS011;17207;52.960;5.916;2024-03-29T10:20:47;0.65;;;0.65;;
30408;SDS011;17207;52.960;5.916;2024-03-29T10:23:13;3.05;;;0.60;;
30408;SDS011;17207;52.960;5.916;2024-03-29T10:25:39;0.52;;;0.52;;
30408;SDS011;17207;52.960;5.916;2024-03-29T10:28:08;0.60;;;0.60;;
30408;SDS011;17207;52.960;5.916;2024-03-29T10:30:34;0.85;;;0.60;;
30408;SDS011;17207;52.960;5.916;2024-03-29T10:33:00;0.70;;;0.70;;
30408;SDS011;17207;52.960;5.916;2024-03-29T10:35:26;0.50;;;0.50;;
30408;SDS011;17207;52.960;5.916;2024-03-29T10:37:52;2.63;;;0.82;;
30408;SDS011;17207;52.960;5.916;2024-03-29T10:40:21;0.57;;;0.50;;
30408;SDS011;17207;52.960;5.916;2024-03-29T10:42:49;0.90;;;0.57;;
30408;SDS011;17207;52.960;5.916;2024-03-29T10:45:15;2.38;;;0.47;;
30408;SDS011;17207;52.960;5.916;2024-03-29T10:47:42;0.88;;;0.60;;
30408;SDS011;17207;52.960;5.916;2024-03-29T10:50:12;0.63;;;0.60;;
30408;SDS011;17207;52.960;5.916;2024-03-29T10:52:39;0.60;;;0.55;;
30408;SDS011;17207;52.960;5.916;2024-03-29T10:55:07;1.33;;;0.60;;
30408;SDS011;17207;52.960;5.916;2024-03-29T10:57:33;1.25;;;0.57;;
30408;SDS011;17207;52.960;5.916;2024-03-29T11:00:04;2.50;;;0.60;;
30408;SDS011;17207;52.960;5.916;2024-03-29T11:05:00;1.27;;;0.68;;
30408;SDS011;17207;52.960;5.916;2024-03-29T11:07:31;2.20;;;0.60;;
30408;SDS011;17207;52.960;5.916;2024-03-29T11:09:58;0.70;;;0.50;;
30408;SDS011;17207;52.960;5.916;2024-03-29T11:12:26;4.10;;;0.60;;
30408;SDS011;17207;52.960;5.916;2024-03-29T11:14:59;1.55;;;0.60;;
30408;SDS011;17207;52.960;5.916;2024-03-29T11:17:27;0.60;;;0.60;;
30408;SDS011;17207;52.960;5.916;2024-03-29T11:19:53;2.08;;;0.60;;
30408;SDS011;17207;52.960;5.916;2024-03-29T11:22:19;0.70;;;0.50;;
30408;SDS011;17207;52.960;5.916;2024-03-29T11:24:45;0.40;;;0.40;;
30408;SDS011;17207;52.960;5.916;2024-03-29T11:27:13;0.63;;;0.40;;
30408;SDS011;17207;52.960;5.916;2024-03-29T11:29:41;0.40;;;0.40;;
30408;SDS011;17207;52.960;5.916;2024-03-29T11:32:08;0.50;;;0.50;;
30408;SDS011;17207;52.960;5.916;2024-03-29T11:34:34;1.48;;;0.40;;
30408;SDS011;17207;52.960;5.916;2024-03-29T11:37:06;3.45;;;0.57;;
30408;SDS011;17207;52.960;5.916;2024-03-29T11:39:33;1.63;;;0.47;;
30408;SDS011;17207;52.960;5.916;2024-03-29T11:42:00;0.40;;;0.32;;
30408;SDS011;17207;52.960;5.916;2024-03-29T11:44:26;0.55;;;0.50;;
30408;SDS011;17207;52.960;5.916;2024-03-29T11:46:53;1.40;;;0.40;;
30408;SDS011;17207;52.960;5.916;2024-03-29T11:49:23;1.00;;;0.70;;
30408;SDS011;17207;52.960;5.916;2024-03-29T11:51:49;0.50;;;0.50;;
30408;SDS011;17207;52.960;5.916;2024-03-29T11:54:15;2.25;;;0.50;;
30408;SDS011;17207;52.960;5.916;2024-03-29T11:56:42;2.42;;;0.80;;
30408;SDS011;17207;52.960;5.916;2024-03-29T11:59:08;0.50;;;0.50;;
30408;SDS011;17207;52.960;5.916;2024-03-29T12:01:34;0.68;;;0.57;;
30408;SDS011;17207;52.960;5.916;2024-03-29T12:04:04;2.78;;;0.50;;
30408;SDS011;17207;52.960;5.916;2024-03-29T12:06:30;2.03;;;0.60;;
30408;SDS011;17207;52.960;5.916;2024-03-29T12:08:56;2.47;;;0.70;;
30408;SDS011;17207;52.960;5.916;2024-03-29T12:11:22;0.47;;;0.45;;
30408;SDS011;17207;52.960;5.916;2024-03-29T12:13:49;0.80;;;0.40;;
30408;SDS011;17207;52.960;5.916;2024-03-29T12:16:15;2.22;;;0.68;;
30408;SDS011;17207;52.960;5.916;2024-03-29T12:18:41;2.35;;;0.40;;
30408;SDS011;17207;52.960;5.916;2024-03-29T12:21:07;0.65;;;0.40;;
30408;SDS011;17207;52.960;5.916;2024-03-29T12:23:34;3.00;;;0.60;;
30408;SDS011;17207;52.960;5.916;2024-03-29T12:26:00;0.40;;;0.40;;
30408;SDS011;17207;52.960;5.916;2024-03-29T12:28:27;0.93;;;0.40;;
30408;SDS011;17207;52.960;5.916;2024-03-29T12:30:55;0.40;;;0.40;;
30408;SDS011;17207;52.960;5.916;2024-03-29T12:33:21;0.50;;;0.50;;
30408;SDS011;17207;52.960;5.916;2024-03-29T12:35:51;7.63;;;0.50;;
30408;SDS011;17207;52.960;5.916;2024-03-29T12:38:19;3.88;;;0.50;;
30408;SDS011;17207;52.960;5.916;2024-03-29T12:40:46;3.80;;;0.60;;
30408;SDS011;17207;52.960;5.916;2024-03-29T12:43:15;0.40;;;0.40;;
30408;SDS011;17207;52.960;5.916;2024-03-29T12:45:44;0.47;;;0.47;;
30408;SDS011;17207;52.960;5.916;2024-03-29T12:48:18;1.85;;;0.50;;
30408;SDS011;17207;52.960;5.916;2024-03-29T12:50:48;0.93;;;0.50;;
30408;SDS011;17207;52.960;5.916;2024-03-29T12:53:15;0.40;;;0.40;;
30408;SDS011;17207;52.960;5.916;2024-03-29T12:55:42;0.70;;;0.52;;
30408;SDS011;17207;52.960;5.916;2024-03-29T12:58:10;0.73;;;0.50;;
30408;SDS011;17207;52.960;5.916;2024-03-29T13:00:37;0.65;;;0.40;;
30408;SDS011;17207;52.960;5.916;2024-03-29T13:03:03;1.48;;;0.45;;
30408;SDS011;17207;52.960;5.916;2024-03-29T13:05:30;0.65;;;0.43;;
30408;SDS011;17207;52.960;5.916;2024-03-29T13:08:00;0.85;;;0.50;;
30408;SDS011;17207;52.960;5.916;2024-03-29T13:10:27;0.30;;;0.30;;
30408;SDS011;17207;52.960;5.916;2024-03-29T13:12:52;0.40;;;0.40;;
30408;SDS011;17207;52.960;5.916;2024-03-29T13:15:19;0.40;;;0.40;;
30408;SDS011;17207;52.960;5.916;2024-03-29T13:17:46;3.10;;;0.65;;
30408;SDS011;17207;52.960;5.916;2024-03-29T13:20:13;0.60;;;0.40;;
30408;SDS011;17207;52.960;5.916;2024-03-29T13:22:40;0.73;;;0.57;;
30408;SDS011;17207;52.960;5.916;2024-03-29T13:25:07;0.77;;;0.30;;
30408;SDS011;17207;52.960;5.916;2024-03-29T13:27:37;1.05;;;0.50;;
30408;SDS011;17207;52.960;5.916;2024-03-29T13:30:04;2.85;;;0.57;;
30408;SDS011;17207;52.960;5.916;2024-03-29T13:32:30;0.47;;;0.47;;
30408;SDS011;17207;52.960;5.916;2024-03-29T13:34:57;0.43;;;0.43;;
30408;SDS011;17207;52.960;5.916;2024-03-29T13:37:23;1.10;;;0.60;;
30408;SDS011;17207;52.960;5.916;2024-03-29T13:39:52;0.50;;;0.50;;
30408;SDS011;17207;52.960;5.916;2024-03-29T13:42:18;0.40;;;0.38;;
30408;SDS011;17207;52.960;5.916;2024-03-29T13:44:44;0.40;;;0.40;;
30408;SDS011;17207;52.960;5.916;2024-03-29T13:47:11;2.00;;;0.43;;
30408;SDS011;17207;52.960;5.916;2024-03-29T13:49:41;0.55;;;0.50;;
30408;SDS011;17207;52.960;5.916;2024-03-29T13:52:08;0.52;;;0.40;;
30408;SDS011;17207;52.960;5.916;2024-03-29T13:54:34;0.68;;;0.40;;
30408;SDS011;17207;52.960;5.916;2024-03-29T13:57:01;0.30;;;0.30;;
30408;SDS011;17207;52.960;5.916;2024-03-29T13:59:28;0.80;;;0.38;;
30408;SDS011;17207;52.960;5.916;2024-03-29T14:01:55;0.98;;;0.95;;
30408;SDS011;17207;52.960;5.916;2024-03-29T14:04:21;0.22;;;0.22;;
30408;SDS011;17207;52.960;5.916;2024-03-29T14:06:48;0.40;;;0.40;;
30408;SDS011;17207;52.960;5.916;2024-03-29T14:09:14;0.30;;;0.30;;
30408;SDS011;17207;52.960;5.916;2024-03-29T14:11:40;1.23;;;0.50;;
30408;SDS011;17207;52.960;5.916;2024-03-29T14:14:08;0.82;;;0.50;;
30408;SDS011;17207;52.960;5.916;2024-03-29T14:16:35;0.50;;;0.50;;
30408;SDS011;17207;52.960;5.916;2024-03-29T14:19:02;0.43;;;0.30;;
30408;SDS011;17207;52.960;5.916;2024-03-29T14:21:28;1.08;;;0.52;;
30408;SDS011;17207;52.960;5.916;2024-03-29T14:23:54;0.43;;;0.40;;
30408;SDS011;17207;52.960;5.916;2024-03-29T14:26:21;0.63;;;0.40;;
30408;SDS011;17207;52.960;5.916;2024-03-29T14:28:47;0.52;;;0.35;;
30408;SDS011;17207;52.960;5.916;2024-03-29T14:31:13;0.50;;;0.50;;
30408;SDS011;17207;52.960;5.916;2024-03-29T14:33:39;0.28;;;0.28;;
30408;SDS011;17207;52.960;5.916;2024-03-29T14:36:05;0.30;;;0.30;;
30408;SDS011;17207;52.960;5.916;2024-03-29T14:38:31;1.58;;;0.38;;
30408;SDS011;17207;52.960;5.916;2024-03-29T14:40:57;0.43;;;0.43;;
30408;SDS011;17207;52.960;5.916;2024-03-29T14:43:23;0.50;;;0.50;;
30408;SDS011;17207;52.960;5.916;2024-03-29T14:45:49;0.82;;;0.50;;
30408;SDS011;17207;52.960;5.916;2024-03-29T14:48:17;0.40;;;0.40;;
30408;SDS011;17207;52.960;5.916;2024-03-29T14:50:43;0.52;;;0.40;;
30408;SDS011;17207;52.960;5.916;2024-03-29T14:53:09;1.00;;;0.40;;